Terminal Aerodrome Forecast
Issued by NWS

Home | Current Version | Previous Version | Text Only | Print | Product List | Glossary On
Versions: 1 2 3 4 5 6 7 8 9 10 11 12 13 14 15 16 17 18 19 20 21 22 23
000
FTUS43 KDVN 311635 AAA
TAFCID
TAF AMD
KCID 311635Z 3117/0112 30008KT P6SM SKC
     FM311800 32012G20KT P6SM FEW080
     FM312300 29007KT P6SM SKC=

USA.gov is the U.S. government's official web portal to all federal, state and local government web resources and services.